sensor_id;sensor_type;location;lat;lon;timestamp;P1;durP1;ratioP1;P2;durP2;ratioP2
12844;SDS011;68700;48.534;9.196;2023-04-01T00:02:42;36.57;;;6.50;;
12844;SDS011;68700;48.534;9.196;2023-04-01T00:06:05;18.97;;;3.70;;
12844;SDS011;68700;48.534;9.196;2023-04-01T00:09:27;28.60;;;5.33;;
12844;SDS011;68700;48.534;9.196;2023-04-01T00:12:50;46.67;;;8.13;;
12844;SDS011;68700;48.534;9.196;2023-04-01T00:16:13;22.90;;;4.50;;
12844;SDS011;68700;48.534;9.196;2023-04-01T00:19:35;24.00;;;4.67;;
12844;SDS011;68700;48.534;9.196;2023-04-01T00:22:58;38.57;;;6.97;;
12844;SDS011;68700;48.534;9.196;2023-04-01T00:26:20;26.50;;;4.87;;
12844;SDS011;68700;48.534;9.196;2023-04-01T00:29:42;27.53;;;5.13;;
12844;SDS011;68700;48.534;9.196;2023-04-01T00:33:06;23.87;;;4.60;;
12844;SDS011;68700;48.534;9.196;2023-04-01T00:36:28;26.57;;;4.93;;
12844;SDS011;68700;48.534;9.196;2023-04-01T00:39:50;22.40;;;4.17;;
12844;SDS011;68700;48.534;9.196;2023-04-01T00:43:13;19.77;;;3.90;;
12844;SDS011;68700;48.534;9.196;2023-04-01T00:46:35;30.77;;;5.60;;
12844;SDS011;68700;48.534;9.196;2023-04-01T00:49:59;22.77;;;4.27;;
12844;SDS011;68700;48.534;9.196;2023-04-01T00:53:21;32.73;;;6.03;;
12844;SDS011;68700;48.534;9.196;2023-04-01T00:56:45;35.17;;;6.40;;
12844;SDS011;68700;48.534;9.196;2023-04-01T01:00:09;30.90;;;5.73;;
12844;SDS011;68700;48.534;9.196;2023-04-01T01:03:33;31.40;;;5.53;;
12844;SDS011;68700;48.534;9.196;2023-04-01T01:06:59;27.23;;;5.03;;
12844;SDS011;68700;48.534;9.196;2023-04-01T01:10:24;23.13;;;4.40;;
12844;SDS011;68700;48.534;9.196;2023-04-01T01:13:49;29.03;;;5.40;;
12844;SDS011;68700;48.534;9.196;2023-04-01T01:17:16;23.10;;;4.57;;
12844;SDS011;68700;48.534;9.196;2023-04-01T01:24:51;24.17;;;4.67;;
12844;SDS011;68700;48.534;9.196;2023-04-01T01:28:20;24.93;;;4.90;;
12844;SDS011;68700;48.534;9.196;2023-04-01T01:31:46;30.77;;;5.53;;
12844;SDS011;68700;48.534;9.196;2023-04-01T01:35:16;24.17;;;4.57;;
12844;SDS011;68700;48.534;9.196;2023-04-01T01:38:40;24.47;;;4.40;;
12844;SDS011;68700;48.534;9.196;2023-04-01T01:42:04;28.70;;;5.27;;
12844;SDS011;68700;48.534;9.196;2023-04-01T01:45:27;26.43;;;4.97;;
12844;SDS011;68700;48.534;9.196;2023-04-01T01:48:49;26.87;;;4.93;;
12844;SDS011;68700;48.534;9.196;2023-04-01T01:52:14;25.47;;;4.77;;
12844;SDS011;68700;48.534;9.196;2023-04-01T01:55:39;23.40;;;4.37;;
12844;SDS011;68700;48.534;9.196;2023-04-01T01:59:02;27.93;;;5.13;;
12844;SDS011;68700;48.534;9.196;2023-04-01T02:02:25;27.67;;;5.00;;
12844;SDS011;68700;48.534;9.196;2023-04-01T02:05:52;21.43;;;4.07;;
12844;SDS011;68700;48.534;9.196;2023-04-01T02:09:16;27.83;;;5.20;;
12844;SDS011;68700;48.534;9.196;2023-04-01T02:12:38;29.70;;;5.47;;
12844;SDS011;68700;48.534;9.196;2023-04-01T02:16:02;21.10;;;4.03;;
12844;SDS011;68700;48.534;9.196;2023-04-01T02:19:28;16.17;;;3.00;;
12844;SDS011;68700;48.534;9.196;2023-04-01T02:22:52;46.23;;;8.03;;
12844;SDS011;68700;48.534;9.196;2023-04-01T02:26:17;20.77;;;3.97;;
12844;SDS011;68700;48.534;9.196;2023-04-01T02:29:39;23.17;;;4.23;;
12844;SDS011;68700;48.534;9.196;2023-04-01T02:33:01;35.20;;;6.27;;
12844;SDS011;68700;48.534;9.196;2023-04-01T02:36:23;25.33;;;4.73;;
12844;SDS011;68700;48.534;9.196;2023-04-01T02:39:46;28.27;;;5.17;;
12844;SDS011;68700;48.534;9.196;2023-04-01T02:43:09;19.53;;;3.80;;
12844;SDS011;68700;48.534;9.196;2023-04-01T02:46:31;19.70;;;3.87;;
12844;SDS011;68700;48.534;9.196;2023-04-01T02:49:53;24.20;;;4.53;;
12844;SDS011;68700;48.534;9.196;2023-04-01T02:53:18;28.33;;;5.33;;
12844;SDS011;68700;48.534;9.196;2023-04-01T02:56:40;26.17;;;4.77;;
12844;SDS011;68700;48.534;9.196;2023-04-01T03:00:04;24.27;;;4.47;;
12844;SDS011;68700;48.534;9.196;2023-04-01T03:03:31;25.53;;;4.67;;
12844;SDS011;68700;48.534;9.196;2023-04-01T03:06:53;28.80;;;5.23;;
12844;SDS011;68700;48.534;9.196;2023-04-01T03:10:15;23.63;;;4.33;;
12844;SDS011;68700;48.534;9.196;2023-04-01T03:13:37;24.30;;;4.53;;
12844;SDS011;68700;48.534;9.196;2023-04-01T03:17:01;27.67;;;5.03;;
12844;SDS011;68700;48.534;9.196;2023-04-01T03:20:23;19.90;;;3.73;;
12844;SDS011;68700;48.534;9.196;2023-04-01T03:23:45;21.57;;;3.93;;
12844;SDS011;68700;48.534;9.196;2023-04-01T03:27:07;22.27;;;4.13;;
12844;SDS011;68700;48.534;9.196;2023-04-01T03:30:29;30.30;;;5.53;;
12844;SDS011;68700;48.534;9.196;2023-04-01T03:33:53;22.60;;;4.27;;
12844;SDS011;68700;48.534;9.196;2023-04-01T03:37:15;20.87;;;3.87;;
12844;SDS011;68700;48.534;9.196;2023-04-01T03:40:38;26.23;;;4.77;;
12844;SDS011;68700;48.534;9.196;2023-04-01T03:44:03;27.47;;;4.97;;
12844;SDS011;68700;48.534;9.196;2023-04-01T03:47:26;19.90;;;3.70;;
12844;SDS011;68700;48.534;9.196;2023-04-01T03:50:49;33.10;;;5.90;;
12844;SDS011;68700;48.534;9.196;2023-04-01T03:54:11;26.80;;;4.83;;
12844;SDS011;68700;48.534;9.196;2023-04-01T03:57:34;22.17;;;4.03;;
12844;SDS011;68700;48.534;9.196;2023-04-01T04:00:56;30.33;;;5.43;;
12844;SDS011;68700;48.534;9.196;2023-04-01T04:04:18;29.60;;;5.43;;
12844;SDS011;68700;48.534;9.196;2023-04-01T04:07:42;20.97;;;3.90;;
12844;SDS011;68700;48.534;9.196;2023-04-01T04:11:04;29.90;;;5.30;;
12844;SDS011;68700;48.534;9.196;2023-04-01T04:14:26;21.93;;;3.93;;
12844;SDS011;68700;48.534;9.196;2023-04-01T04:17:48;25.67;;;4.73;;
12844;SDS011;68700;48.534;9.196;2023-04-01T04:21:11;23.73;;;4.27;;
12844;SDS011;68700;48.534;9.196;2023-04-01T04:24:35;28.93;;;5.07;;
12844;SDS011;68700;48.534;9.196;2023-04-01T04:27:57;23.93;;;4.33;;
12844;SDS011;68700;48.534;9.196;2023-04-01T04:31:19;24.47;;;4.47;;
12844;SDS011;68700;48.534;9.196;2023-04-01T04:34:42;30.80;;;5.53;;
12844;SDS011;68700;48.534;9.196;2023-04-01T04:38:04;19.97;;;3.87;;
12844;SDS011;68700;48.534;9.196;2023-04-01T04:41:27;18.17;;;3.40;;
12844;SDS011;68700;48.534;9.196;2023-04-01T04:44:49;30.50;;;5.57;;
12844;SDS011;68700;48.534;9.196;2023-04-01T04:48:12;25.87;;;4.53;;
12844;SDS011;68700;48.534;9.196;2023-04-01T04:51:38;20.20;;;3.63;;
12844;SDS011;68700;48.534;9.196;2023-04-01T04:55:00;21.07;;;3.97;;
12844;SDS011;68700;48.534;9.196;2023-04-01T04:58:24;31.87;;;5.60;;
12844;SDS011;68700;48.534;9.196;2023-04-01T05:01:46;23.50;;;4.23;;
12844;SDS011;68700;48.534;9.196;2023-04-01T05:05:08;29.20;;;5.10;;
12844;SDS011;68700;48.534;9.196;2023-04-01T05:08:31;30.90;;;5.40;;
12844;SDS011;68700;48.534;9.196;2023-04-01T05:11:54;26.80;;;4.83;;
12844;SDS011;68700;48.534;9.196;2023-04-01T05:15:17;24.13;;;4.53;;
12844;SDS011;68700;48.534;9.196;2023-04-01T05:18:39;23.00;;;4.20;;
12844;SDS011;68700;48.534;9.196;2023-04-01T05:22:02;24.80;;;4.43;;
12844;SDS011;68700;48.534;9.196;2023-04-01T05:25:24;32.47;;;5.70;;
12844;SDS011;68700;48.534;9.196;2023-04-01T05:28:46;26.77;;;4.73;;
12844;SDS011;68700;48.534;9.196;2023-04-01T05:32:09;23.53;;;4.50;;
12844;SDS011;68700;48.534;9.196;2023-04-01T05:35:32;22.10;;;4.27;;
12844;SDS011;68700;48.534;9.196;2023-04-01T05:38:54;27.63;;;5.00;;
12844;SDS011;68700;48.534;9.196;2023-04-01T05:42:16;22.73;;;4.20;;
12844;SDS011;68700;48.534;9.196;2023-04-01T05:45:39;26.37;;;4.63;;
12844;SDS011;68700;48.534;9.196;2023-04-01T05:49:02;26.17;;;4.60;;
12844;SDS011;68700;48.534;9.196;2023-04-01T05:52:24;17.90;;;3.43;;
12844;SDS011;68700;48.534;9.196;2023-04-01T05:55:46;29.67;;;5.33;;
12844;SDS011;68700;48.534;9.196;2023-04-01T05:59:09;20.90;;;3.90;;
12844;SDS011;68700;48.534;9.196;2023-04-01T06:02:31;19.70;;;3.80;;
12844;SDS011;68700;48.534;9.196;2023-04-01T06:05:54;19.67;;;3.57;;
12844;SDS011;68700;48.534;9.196;2023-04-01T06:09:18;25.47;;;4.60;;
12844;SDS011;68700;48.534;9.196;2023-04-01T06:12:44;41.90;;;7.17;;
12844;SDS011;68700;48.534;9.196;2023-04-01T06:16:08;25.33;;;4.63;;
12844;SDS011;68700;48.534;9.196;2023-04-01T06:19:36;20.77;;;3.87;;
12844;SDS011;68700;48.534;9.196;2023-04-01T06:23:06;42.87;;;7.23;;
12844;SDS011;68700;48.534;9.196;2023-04-01T06:26:30;22.23;;;4.23;;
12844;SDS011;68700;48.534;9.196;2023-04-01T06:29:57;23.47;;;4.17;;
12844;SDS011;68700;48.534;9.196;2023-04-01T06:33:33;27.73;;;4.97;;
12844;SDS011;68700;48.534;9.196;2023-04-01T06:37:02;25.47;;;4.47;;
12844;SDS011;68700;48.534;9.196;2023-04-01T06:40:40;26.07;;;4.67;;
12844;SDS011;68700;48.534;9.196;2023-04-01T06:44:10;17.40;;;3.47;;
12844;SDS011;68700;48.534;9.196;2023-04-01T06:47:42;21.47;;;4.07;;
12844;SDS011;68700;48.534;9.196;2023-04-01T06:51:11;23.47;;;3.93;;
12844;SDS011;68700;48.534;9.196;2023-04-01T06:54:37;30.77;;;5.30;;
12844;SDS011;68700;48.534;9.196;2023-04-01T06:58:01;30.57;;;5.17;;
12844;SDS011;68700;48.534;9.196;2023-04-01T07:01:26;27.30;;;4.93;;
12844;SDS011;68700;48.534;9.196;2023-04-01T07:04:50;35.33;;;6.33;;
12844;SDS011;68700;48.534;9.196;2023-04-01T07:08:15;27.47;;;5.00;;
12844;SDS011;68700;48.534;9.196;2023-04-01T07:11:39;18.60;;;3.57;;
12844;SDS011;68700;48.534;9.196;2023-04-01T07:15:04;24.50;;;4.53;;
12844;SDS011;68700;48.534;9.196;2023-04-01T07:18:30;26.10;;;4.77;;
12844;SDS011;68700;48.534;9.196;2023-04-01T07:21:55;24.10;;;4.63;;
12844;SDS011;68700;48.534;9.196;2023-04-01T07:25:19;30.67;;;5.40;;
12844;SDS011;68700;48.534;9.196;2023-04-01T07:28:42;23.57;;;4.73;;
12844;SDS011;68700;48.534;9.196;2023-04-01T07:32:09;20.93;;;3.93;;
12844;SDS011;68700;48.534;9.196;2023-04-01T07:35:33;22.93;;;4.07;;
12844;SDS011;68700;48.534;9.196;2023-04-01T07:38:59;22.93;;;4.33;;
12844;SDS011;68700;48.534;9.196;2023-04-01T07:42:27;25.83;;;4.90;;
12844;SDS011;68700;48.534;9.196;2023-04-01T07:45:53;26.37;;;4.93;;
12844;SDS011;68700;48.534;9.196;2023-04-01T07:49:19;22.87;;;4.13;;
12844;SDS011;68700;48.534;9.196;2023-04-01T07:52:44;37.60;;;6.77;;
12844;SDS011;68700;48.534;9.196;2023-04-01T07:56:13;24.97;;;4.67;;
12844;SDS011;68700;48.534;9.196;2023-04-01T07:59:39;27.67;;;4.93;;
12844;SDS011;68700;48.534;9.196;2023-04-01T08:03:08;38.70;;;6.77;;
12844;SDS011;68700;48.534;9.196;2023-04-01T08:06:35;27.30;;;5.07;;
12844;SDS011;68700;48.534;9.196;2023-04-01T08:09:59;24.47;;;4.37;;
12844;SDS011;68700;48.534;9.196;2023-04-01T08:13:26;29.93;;;5.53;;
12844;SDS011;68700;48.534;9.196;2023-04-01T08:16:52;28.87;;;5.40;;
12844;SDS011;68700;48.534;9.196;2023-04-01T08:20:25;25.03;;;4.60;;
12844;SDS011;68700;48.534;9.196;2023-04-01T08:23:51;23.73;;;4.43;;
12844;SDS011;68700;48.534;9.196;2023-04-01T08:27:15;30.60;;;5.57;;
12844;SDS011;68700;48.534;9.196;2023-04-01T08:30:40;23.57;;;4.37;;
12844;SDS011;68700;48.534;9.196;2023-04-01T08:34:05;23.17;;;4.33;;
12844;SDS011;68700;48.534;9.196;2023-04-01T08:37:31;24.37;;;4.57;;
12844;SDS011;68700;48.534;9.196;2023-04-01T08:40:59;20.37;;;3.73;;
12844;SDS011;68700;48.534;9.196;2023-04-01T08:44:34;25.43;;;4.73;;
12844;SDS011;68700;48.534;9.196;2023-04-01T08:48:23;20.57;;;3.97;;
12844;SDS011;68700;48.534;9.196;2023-04-01T08:52:01;24.30;;;4.53;;
12844;SDS011;68700;48.534;9.196;2023-04-01T08:55:30;14.87;;;3.13;;
12844;SDS011;68700;48.534;9.196;2023-04-01T09:02:40;29.67;;;5.23;;
12844;SDS011;68700;48.534;9.196;2023-04-01T09:06:13;20.33;;;3.80;;
12844;SDS011;68700;48.534;9.196;2023-04-01T09:09:56;21.97;;;4.20;;
12844;SDS011;68700;48.534;9.196;2023-04-01T09:13:27;22.20;;;4.40;;
12844;SDS011;68700;48.534;9.196;2023-04-01T09:20:44;16.80;;;3.50;;
12844;SDS011;68700;48.534;9.196;2023-04-01T09:27:51;20.37;;;3.90;;
12844;SDS011;68700;48.534;9.196;2023-04-01T09:31:20;22.03;;;4.30;;
12844;SDS011;68700;48.534;9.196;2023-04-01T09:34:54;22.33;;;4.30;;
12844;SDS011;68700;48.534;9.196;2023-04-01T09:38:21;20.87;;;4.10;;
12844;SDS011;68700;48.534;9.196;2023-04-01T09:41:46;31.83;;;5.83;;
12844;SDS011;68700;48.534;9.196;2023-04-01T09:45:23;24.63;;;4.60;;
12844;SDS011;68700;48.534;9.196;2023-04-01T09:48:58;24.57;;;4.53;;
12844;SDS011;68700;48.534;9.196;2023-04-01T09:52:30;18.93;;;3.60;;
12844;SDS011;68700;48.534;9.196;2023-04-01T10:03:45;23.23;;;4.27;;
12844;SDS011;68700;48.534;9.196;2023-04-01T10:11:15;26.70;;;5.03;;
12844;SDS011;68700;48.534;9.196;2023-04-01T10:14:47;21.53;;;3.93;;
12844;SDS011;68700;48.534;9.196;2023-04-01T10:22:01;23.70;;;4.50;;
12844;SDS011;68700;48.534;9.196;2023-04-01T10:25:38;19.67;;;3.60;;
12844;SDS011;68700;48.534;9.196;2023-04-01T10:29:23;23.67;;;4.50;;
12844;SDS011;68700;48.534;9.196;2023-04-01T10:32:52;38.37;;;6.80;;
12844;SDS011;68700;48.534;9.196;2023-04-01T10:36:35;22.80;;;4.50;;
12844;SDS011;68700;48.534;9.196;2023-04-01T10:44:04;21.53;;;3.90;;
12844;SDS011;68700;48.534;9.196;2023-04-01T10:51:17;19.50;;;3.87;;
12844;SDS011;68700;48.534;9.196;2023-04-01T10:54:43;25.07;;;4.63;;
12844;SDS011;68700;48.534;9.196;2023-04-01T10:58:18;23.63;;;4.43;;
12844;SDS011;68700;48.534;9.196;2023-04-01T11:16:59;26.03;;;4.97;;
12844;SDS011;68700;48.534;9.196;2023-04-01T11:20:32;22.87;;;4.27;;
12844;SDS011;68700;48.534;9.196;2023-04-01T11:24:04;23.00;;;4.70;;
12844;SDS011;68700;48.534;9.196;2023-04-01T11:27:34;24.37;;;4.43;;
12844;SDS011;68700;48.534;9.196;2023-04-01T11:31:10;23.50;;;4.43;;
12844;SDS011;68700;48.534;9.196;2023-04-01T11:38:26;23.23;;;4.50;;
12844;SDS011;68700;48.534;9.196;2023-04-01T11:41:52;24.83;;;4.70;;
12844;SDS011;68700;48.534;9.196;2023-04-01T11:45:20;19.43;;;3.83;;
12844;SDS011;68700;48.534;9.196;2023-04-01T11:48:53;22.67;;;4.30;;
12844;SDS011;68700;48.534;9.196;2023-04-01T11:52:21;16.93;;;3.47;;
12844;SDS011;68700;48.534;9.196;2023-04-01T11:55:53;16.63;;;3.40;;
12844;SDS011;68700;48.534;9.196;2023-04-01T12:03:09;35.23;;;6.33;;
12844;SDS011;68700;48.534;9.196;2023-04-01T12:06:33;30.53;;;5.63;;
12844;SDS011;68700;48.534;9.196;2023-04-01T12:09:58;16.33;;;3.43;;
12844;SDS011;68700;48.534;9.196;2023-04-01T12:13:28;20.27;;;4.03;;
12844;SDS011;68700;48.534;9.196;2023-04-01T12:16:58;23.40;;;4.53;;
12844;SDS011;68700;48.534;9.196;2023-04-01T12:20:26;22.57;;;4.30;;
12844;SDS011;68700;48.534;9.196;2023-04-01T12:24:04;16.57;;;3.33;;
12844;SDS011;68700;48.534;9.196;2023-04-01T12:27:41;21.90;;;4.23;;
12844;SDS011;68700;48.534;9.196;2023-04-01T12:31:10;20.27;;;4.00;;
12844;SDS011;68700;48.534;9.196;2023-04-01T12:34:45;26.13;;;5.03;;
12844;SDS011;68700;48.534;9.196;2023-04-01T12:38:19;26.00;;;4.77;;
12844;SDS011;68700;48.534;9.196;2023-04-01T12:41:45;23.47;;;4.17;;
12844;SDS011;68700;48.534;9.196;2023-04-01T12:45:24;19.37;;;3.70;;
12844;SDS011;68700;48.534;9.196;2023-04-01T12:52:34;24.13;;;4.60;;
12844;SDS011;68700;48.534;9.196;2023-04-01T12:55:58;20.80;;;4.23;;
12844;SDS011;68700;48.534;9.196;2023-04-01T12:59:24;25.27;;;4.83;;
12844;SDS011;68700;48.534;9.196;2023-04-01T13:02:52;36.60;;;6.43;;
12844;SDS011;68700;48.534;9.196;2023-04-01T13:06:20;25.47;;;5.00;;
12844;SDS011;68700;48.534;9.196;2023-04-01T13:09:50;24.13;;;4.90;;
12844;SDS011;68700;48.534;9.196;2023-04-01T13:13:21;22.20;;;4.30;;
12844;SDS011;68700;48.534;9.196;2023-04-01T13:16:48;28.57;;;5.33;;
12844;SDS011;68700;48.534;9.196;2023-04-01T13:20:16;21.00;;;4.10;;
12844;SDS011;68700;48.534;9.196;2023-04-01T13:23:46;26.77;;;5.17;;
12844;SDS011;68700;48.534;9.196;2023-04-01T13:27:11;18.83;;;3.97;;
12844;SDS011;68700;48.534;9.196;2023-04-01T13:30:37;22.60;;;4.53;;
12844;SDS011;68700;48.534;9.196;2023-04-01T13:34:05;25.67;;;4.87;;
12844;SDS011;68700;48.534;9.196;2023-04-01T13:37:32;22.33;;;4.27;;
12844;SDS011;68700;48.534;9.196;2023-04-01T13:41:00;18.53;;;3.83;;
12844;SDS011;68700;48.534;9.196;2023-04-01T13:44:29;25.40;;;4.77;;
12844;SDS011;68700;48.534;9.196;2023-04-01T13:47:59;21.50;;;4.60;;
12844;SDS011;68700;48.534;9.196;2023-04-01T13:55:14;18.40;;;3.80;;
12844;SDS011;68700;48.534;9.196;2023-04-01T13:58:45;20.33;;;4.10;;
12844;SDS011;68700;48.534;9.196;2023-04-01T14:02:17;26.90;;;5.10;;
12844;SDS011;68700;48.534;9.196;2023-04-01T14:05:55;19.23;;;3.87;;
12844;SDS011;68700;48.534;9.196;2023-04-01T14:09:30;31.87;;;5.87;;
12844;SDS011;68700;48.534;9.196;2023-04-01T14:12:57;44.17;;;7.97;;
12844;SDS011;68700;48.534;9.196;2023-04-01T14:16:27;22.77;;;4.40;;
12844;SDS011;68700;48.534;9.196;2023-04-01T14:24:00;25.43;;;4.87;;
12844;SDS011;68700;48.534;9.196;2023-04-01T14:27:26;25.20;;;4.73;;
12844;SDS011;68700;48.534;9.196;2023-04-01T14:30:55;20.33;;;3.97;;
12844;SDS011;68700;48.534;9.196;2023-04-01T14:34:26;29.00;;;5.30;;
12844;SDS011;68700;48.534;9.196;2023-04-01T14:41:38;26.07;;;5.00;;
12844;SDS011;68700;48.534;9.196;2023-04-01T14:45:08;23.63;;;4.47;;
12844;SDS011;68700;48.534;9.196;2023-04-01T14:48:48;27.30;;;5.13;;
12844;SDS011;68700;48.534;9.196;2023-04-01T14:52:13;22.93;;;4.37;;
12844;SDS011;68700;48.534;9.196;2023-04-01T14:55:43;18.57;;;3.70;;
12844;SDS011;68700;48.534;9.196;2023-04-01T14:59:25;21.23;;;4.07;;
12844;SDS011;68700;48.534;9.196;2023-04-01T15:02:50;39.37;;;7.07;;
12844;SDS011;68700;48.534;9.196;2023-04-01T15:06:30;25.23;;;4.80;;
12844;SDS011;68700;48.534;9.196;2023-04-01T15:09:55;27.20;;;5.10;;
12844;SDS011;68700;48.534;9.196;2023-04-01T15:13:28;24.50;;;4.50;;
12844;SDS011;68700;48.534;9.196;2023-04-01T15:16:58;22.93;;;4.40;;
12844;SDS011;68700;48.534;9.196;2023-04-01T15:20:25;23.27;;;4.17;;
12844;SDS011;68700;48.534;9.196;2023-04-01T15:24:00;23.63;;;4.63;;
12844;SDS011;68700;48.534;9.196;2023-04-01T15:27:28;23.93;;;4.60;;
12844;SDS011;68700;48.534;9.196;2023-04-01T15:30:53;24.20;;;4.57;;
12844;SDS011;68700;48.534;9.196;2023-04-01T15:34:26;26.67;;;4.93;;
12844;SDS011;68700;48.534;9.196;2023-04-01T15:37:52;19.87;;;3.80;;
12844;SDS011;68700;48.534;9.196;2023-04-01T15:41:17;23.70;;;4.50;;
12844;SDS011;68700;48.534;9.196;2023-04-01T15:44:50;19.60;;;3.83;;
12844;SDS011;68700;48.534;9.196;2023-04-01T15:48:23;24.20;;;5.00;;
12844;SDS011;68700;48.534;9.196;2023-04-01T15:51:51;20.47;;;4.00;;
12844;SDS011;68700;48.534;9.196;2023-04-01T15:55:18;24.30;;;4.80;;
12844;SDS011;68700;48.534;9.196;2023-04-01T15:58:44;21.87;;;4.23;;
12844;SDS011;68700;48.534;9.196;2023-04-01T16:02:11;27.57;;;5.10;;
12844;SDS011;68700;48.534;9.196;2023-04-01T16:05:37;27.30;;;5.27;;
12844;SDS011;68700;48.534;9.196;2023-04-01T16:09:14;25.17;;;4.77;;
12844;SDS011;68700;48.534;9.196;2023-04-01T16:12:44;22.53;;;4.30;;
12844;SDS011;68700;48.534;9.196;2023-04-01T16:16:11;28.40;;;5.17;;
12844;SDS011;68700;48.534;9.196;2023-04-01T16:19:41;25.30;;;4.93;;
12844;SDS011;68700;48.534;9.196;2023-04-01T16:23:10;23.47;;;4.57;;
12844;SDS011;68700;48.534;9.196;2023-04-01T16:26:37;26.83;;;5.00;;
12844;SDS011;68700;48.534;9.196;2023-04-01T16:30:01;24.87;;;4.70;;
12844;SDS011;68700;48.534;9.196;2023-04-01T16:33:28;22.47;;;4.10;;
12844;SDS011;68700;48.534;9.196;2023-04-01T16:36:54;28.00;;;5.33;;
12844;SDS011;68700;48.534;9.196;2023-04-01T16:40:22;25.93;;;5.23;;
12844;SDS011;68700;48.534;9.196;2023-04-01T16:43:48;22.80;;;4.60;;
12844;SDS011;68700;48.534;9.196;2023-04-01T16:47:14;24.53;;;4.63;;
12844;SDS011;68700;48.534;9.196;2023-04-01T16:50:43;22.30;;;4.20;;
12844;SDS011;68700;48.534;9.196;2023-04-01T16:54:10;30.17;;;5.70;;
12844;SDS011;68700;48.534;9.196;2023-04-01T16:57:36;34.33;;;6.30;;
12844;SDS011;68700;48.534;9.196;2023-04-01T17:01:02;22.60;;;4.70;;
12844;SDS011;68700;48.534;9.196;2023-04-01T17:04:28;28.93;;;5.47;;
12844;SDS011;68700;48.534;9.196;2023-04-01T17:07:55;31.90;;;6.53;;
12844;SDS011;68700;48.534;9.196;2023-04-01T17:11:20;27.20;;;5.40;;
12844;SDS011;68700;48.534;9.196;2023-04-01T17:14:46;40.23;;;12.37;;
12844;SDS011;68700;48.534;9.196;2023-04-01T17:18:14;311.70;;;169.07;;
12844;SDS011;68700;48.534;9.196;2023-04-01T17:21:46;474.67;;;288.83;;
12844;SDS011;68700;48.534;9.196;2023-04-01T17:25:19;631.40;;;394.77;;
12844;SDS011;68700;48.534;9.196;2023-04-01T17:28:45;621.53;;;397.53;;
12844;SDS011;68700;48.534;9.196;2023-04-01T17:32:10;635.63;;;392.60;;
12844;SDS011;68700;48.534;9.196;2023-04-01T17:35:35;615.60;;;385.47;;
12844;SDS011;68700;48.534;9.196;2023-04-01T17:39:04;584.03;;;369.10;;
12844;SDS011;68700;48.534;9.196;2023-04-01T17:42:32;552.33;;;353.43;;
12844;SDS011;68700;48.534;9.196;2023-04-01T17:46:01;561.33;;;348.07;;
12844;SDS011;68700;48.534;9.196;2023-04-01T17:49:25;547.20;;;335.47;;
12844;SDS011;68700;48.534;9.196;2023-04-01T17:52:53;525.57;;;327.67;;
12844;SDS011;68700;48.534;9.196;2023-04-01T17:56:21;512.83;;;312.57;;
12844;SDS011;68700;48.534;9.196;2023-04-01T17:59:48;487.73;;;305.83;;
12844;SDS011;68700;48.534;9.196;2023-04-01T18:03:17;470.37;;;292.73;;
12844;SDS011;68700;48.534;9.196;2023-04-01T18:06:47;465.70;;;287.67;;
12844;SDS011;68700;48.534;9.196;2023-04-01T18:10:20;440.70;;;275.60;;
12844;SDS011;68700;48.534;9.196;2023-04-01T18:13:59;433.73;;;268.57;;
12844;SDS011;68700;48.534;9.196;2023-04-01T18:17:25;399.67;;;246.77;;
12844;SDS011;68700;48.534;9.196;2023-04-01T18:20:53;386.73;;;239.43;;
12844;SDS011;68700;48.534;9.196;2023-04-01T18:24:18;364.53;;;233.83;;
12844;SDS011;68700;48.534;9.196;2023-04-01T18:27:44;372.93;;;228.97;;
12844;SDS011;68700;48.534;9.196;2023-04-01T18:31:12;342.30;;;215.00;;
12844;SDS011;68700;48.534;9.196;2023-04-01T18:34:39;340.43;;;208.03;;
12844;SDS011;68700;48.534;9.196;2023-04-01T18:38:04;314.07;;;201.17;;
12844;SDS011;68700;48.534;9.196;2023-04-01T18:41:30;314.40;;;195.50;;
12844;SDS011;68700;48.534;9.196;2023-04-01T18:44:56;302.63;;;176.83;;
12844;SDS011;68700;48.534;9.196;2023-04-01T18:48:33;304.10;;;177.33;;
12844;SDS011;68700;48.534;9.196;2023-04-01T18:51:59;284.47;;;174.20;;
12844;SDS011;68700;48.534;9.196;2023-04-01T18:55:32;286.43;;;174.17;;
12844;SDS011;68700;48.534;9.196;2023-04-01T18:58:59;263.47;;;154.07;;
12844;SDS011;68700;48.534;9.196;2023-04-01T19:02:27;270.93;;;154.63;;
12844;SDS011;68700;48.534;9.196;2023-04-01T19:05:52;235.37;;;133.40;;
12844;SDS011;68700;48.534;9.196;2023-04-01T19:09:17;222.43;;;137.97;;
12844;SDS011;68700;48.534;9.196;2023-04-01T19:12:41;234.10;;;138.00;;
12844;SDS011;68700;48.534;9.196;2023-04-01T19:16:12;234.20;;;136.83;;
12844;SDS011;68700;48.534;9.196;2023-04-01T19:19:44;226.10;;;130.40;;
12844;SDS011;68700;48.534;9.196;2023-04-01T19:23:31;222.03;;;125.63;;
12844;SDS011;68700;48.534;9.196;2023-04-01T19:26:58;213.30;;;126.33;;
12844;SDS011;68700;48.534;9.196;2023-04-01T19:30:27;200.67;;;120.20;;
12844;SDS011;68700;48.534;9.196;2023-04-01T19:33:57;200.37;;;116.63;;
12844;SDS011;68700;48.534;9.196;2023-04-01T19:37:31;204.63;;;116.03;;
12844;SDS011;68700;48.534;9.196;2023-04-01T19:40:54;178.37;;;106.33;;
12844;SDS011;68700;48.534;9.196;2023-04-01T19:44:21;185.57;;;111.77;;
12844;SDS011;68700;48.534;9.196;2023-04-01T19:47:48;176.83;;;104.57;;
12844;SDS011;68700;48.534;9.196;2023-04-01T19:51:19;181.07;;;101.90;;
12844;SDS011;68700;48.534;9.196;2023-04-01T19:54:46;166.37;;;97.47;;
12844;SDS011;68700;48.534;9.196;2023-04-01T19:58:12;132.87;;;69.87;;
12844;SDS011;68700;48.534;9.196;2023-04-01T20:01:37;78.67;;;39.53;;
12844;SDS011;68700;48.534;9.196;2023-04-01T20:05:04;79.70;;;32.67;;
12844;SDS011;68700;48.534;9.196;2023-04-01T20:08:33;63.17;;;29.53;;
12844;SDS011;68700;48.534;9.196;2023-04-01T20:11:59;67.37;;;35.93;;
12844;SDS011;68700;48.534;9.196;2023-04-01T20:15:23;56.20;;;23.03;;
12844;SDS011;68700;48.534;9.196;2023-04-01T20:18:54;64.60;;;26.57;;
12844;SDS011;68700;48.534;9.196;2023-04-01T20:22:23;68.97;;;32.23;;
12844;SDS011;68700;48.534;9.196;2023-04-01T20:25:48;79.10;;;38.83;;
12844;SDS011;68700;48.534;9.196;2023-04-01T20:29:31;72.63;;;37.00;;
12844;SDS011;68700;48.534;9.196;2023-04-01T20:33:01;86.53;;;37.83;;
12844;SDS011;68700;48.534;9.196;2023-04-01T20:36:30;76.80;;;34.70;;
12844;SDS011;68700;48.534;9.196;2023-04-01T20:40:02;69.73;;;32.53;;
12844;SDS011;68700;48.534;9.196;2023-04-01T20:43:48;64.73;;;31.87;;
12844;SDS011;68700;48.534;9.196;2023-04-01T20:47:16;71.60;;;32.53;;
12844;SDS011;68700;48.534;9.196;2023-04-01T20:50:45;62.00;;;30.50;;
12844;SDS011;68700;48.534;9.196;2023-04-01T20:54:17;69.70;;;31.57;;
12844;SDS011;68700;48.534;9.196;2023-04-01T20:57:44;65.43;;;30.67;;
12844;SDS011;68700;48.534;9.196;2023-04-01T21:01:13;61.93;;;29.03;;
12844;SDS011;68700;48.534;9.196;2023-04-01T21:04:40;61.60;;;29.87;;
12844;SDS011;68700;48.534;9.196;2023-04-01T21:08:07;70.90;;;30.57;;
12844;SDS011;68700;48.534;9.196;2023-04-01T21:11:34;59.47;;;27.83;;
12844;SDS011;68700;48.534;9.196;2023-04-01T21:22:28;59.90;;;25.90;;
12844;SDS011;68700;48.534;9.196;2023-04-01T21:26:10;64.37;;;27.10;;
12844;SDS011;68700;48.534;9.196;2023-04-01T21:29:40;53.10;;;24.83;;
12844;SDS011;68700;48.534;9.196;2023-04-01T21:33:07;54.53;;;24.73;;
12844;SDS011;68700;48.534;9.196;2023-04-01T21:36:35;59.67;;;26.20;;
12844;SDS011;68700;48.534;9.196;2023-04-01T21:40:09;53.70;;;24.63;;
12844;SDS011;68700;48.534;9.196;2023-04-01T21:47:29;66.77;;;24.87;;
12844;SDS011;68700;48.534;9.196;2023-04-01T21:51:05;49.73;;;21.93;;